sensor_id;sensor_type;location;lat;lon;timestamp;P1;durP1;ratioP1;P2;durP2;ratioP2
83447;SDS011;73376;45.472;-73.568;2024-02-16T00:01:37;4.30;;;1.50;;
83447;SDS011;73376;45.472;-73.568;2024-02-16T00:04:03;3.10;;;1.23;;
83447;SDS011;73376;45.472;-73.568;2024-02-16T00:06:29;3.10;;;1.53;;
83447;SDS011;73376;45.472;-73.568;2024-02-16T00:08:59;10.27;;;1.30;;
83447;SDS011;73376;45.472;-73.568;2024-02-16T00:11:27;2.60;;;1.17;;
83447;SDS011;73376;45.472;-73.568;2024-02-16T00:13:54;2.47;;;1.10;;
83447;SDS011;73376;45.472;-73.568;2024-02-16T00:16:20;2.70;;;1.40;;
83447;SDS011;73376;45.472;-73.568;2024-02-16T00:18:48;3.13;;;1.23;;
83447;SDS011;73376;45.472;-73.568;2024-02-16T00:21:14;3.10;;;1.37;;
83447;SDS011;73376;45.472;-73.568;2024-02-16T00:23:43;5.47;;;2.03;;
83447;SDS011;73376;45.472;-73.568;2024-02-16T00:26:09;4.63;;;1.57;;
83447;SDS011;73376;45.472;-73.568;2024-02-16T00:28:35;4.43;;;1.47;;
83447;SDS011;73376;45.472;-73.568;2024-02-16T00:31:01;4.33;;;1.70;;
83447;SDS011;73376;45.472;-73.568;2024-02-16T00:33:27;3.53;;;1.73;;
83447;SDS011;73376;45.472;-73.568;2024-02-16T00:35:54;5.20;;;1.27;;
83447;SDS011;73376;45.472;-73.568;2024-02-16T00:38:20;7.63;;;1.57;;
83447;SDS011;73376;45.472;-73.568;2024-02-16T00:40:49;5.53;;;1.33;;
83447;SDS011;73376;45.472;-73.568;2024-02-16T00:43:15;4.80;;;1.63;;
83447;SDS011;73376;45.472;-73.568;2024-02-16T00:45:43;2.53;;;1.40;;
83447;SDS011;73376;45.472;-73.568;2024-02-16T00:48:10;8.70;;;1.40;;
83447;SDS011;73376;45.472;-73.568;2024-02-16T00:50:36;5.13;;;1.60;;
83447;SDS011;73376;45.472;-73.568;2024-02-16T00:53:02;4.67;;;2.17;;
83447;SDS011;73376;45.472;-73.568;2024-02-16T00:55:29;4.63;;;1.50;;
83447;SDS011;73376;45.472;-73.568;2024-02-16T00:57:55;4.33;;;1.60;;
83447;SDS011;73376;45.472;-73.568;2024-02-16T01:00:24;5.43;;;1.40;;
83447;SDS011;73376;45.472;-73.568;2024-02-16T01:02:50;3.93;;;1.40;;
83447;SDS011;73376;45.472;-73.568;2024-02-16T01:05:20;4.80;;;1.90;;
83447;SDS011;73376;45.472;-73.568;2024-02-16T01:07:46;3.47;;;1.50;;
83447;SDS011;73376;45.472;-73.568;2024-02-16T01:10:12;6.17;;;1.73;;
83447;SDS011;73376;45.472;-73.568;2024-02-16T01:12:40;8.57;;;2.60;;
83447;SDS011;73376;45.472;-73.568;2024-02-16T01:15:06;6.00;;;1.50;;
83447;SDS011;73376;45.472;-73.568;2024-02-16T01:17:32;3.80;;;1.80;;
83447;SDS011;73376;45.472;-73.568;2024-02-16T01:19:59;3.37;;;1.50;;
83447;SDS011;73376;45.472;-73.568;2024-02-16T01:22:25;8.87;;;1.67;;
83447;SDS011;73376;45.472;-73.568;2024-02-16T01:24:54;8.83;;;1.90;;
83447;SDS011;73376;45.472;-73.568;2024-02-16T01:27:20;16.57;;;2.00;;
83447;SDS011;73376;45.472;-73.568;2024-02-16T01:29:46;4.93;;;1.70;;
83447;SDS011;73376;45.472;-73.568;2024-02-16T01:32:12;3.07;;;1.80;;
83447;SDS011;73376;45.472;-73.568;2024-02-16T01:34:39;4.70;;;1.93;;
83447;SDS011;73376;45.472;-73.568;2024-02-16T01:37:05;7.10;;;2.00;;
83447;SDS011;73376;45.472;-73.568;2024-02-16T01:39:31;5.53;;;1.87;;
83447;SDS011;73376;45.472;-73.568;2024-02-16T01:41:57;5.90;;;1.70;;
83447;SDS011;73376;45.472;-73.568;2024-02-16T01:44:22;11.07;;;2.60;;
83447;SDS011;73376;45.472;-73.568;2024-02-16T01:46:48;6.27;;;2.33;;
83447;SDS011;73376;45.472;-73.568;2024-02-16T01:49:15;8.23;;;2.77;;
83447;SDS011;73376;45.472;-73.568;2024-02-16T01:51:43;6.80;;;2.00;;
83447;SDS011;73376;45.472;-73.568;2024-02-16T01:54:12;4.95;;;2.67;;
83447;SDS011;73376;45.472;-73.568;2024-02-16T01:56:43;6.57;;;2.87;;
83447;SDS011;73376;45.472;-73.568;2024-02-16T01:59:10;5.40;;;2.50;;
83447;SDS011;73376;45.472;-73.568;2024-02-16T02:01:41;5.27;;;2.10;;
83447;SDS011;73376;45.472;-73.568;2024-02-16T02:04:08;5.70;;;2.00;;
83447;SDS011;73376;45.472;-73.568;2024-02-16T02:06:34;4.27;;;2.50;;
83447;SDS011;73376;45.472;-73.568;2024-02-16T02:09:00;5.40;;;1.97;;
83447;SDS011;73376;45.472;-73.568;2024-02-16T02:11:26;4.90;;;1.90;;
83447;SDS011;73376;45.472;-73.568;2024-02-16T02:13:52;5.03;;;1.50;;
83447;SDS011;73376;45.472;-73.568;2024-02-16T02:16:18;6.07;;;1.70;;
83447;SDS011;73376;45.472;-73.568;2024-02-16T02:18:46;2.00;;;1.13;;
83447;SDS011;73376;45.472;-73.568;2024-02-16T02:21:12;3.60;;;1.57;;
83447;SDS011;73376;45.472;-73.568;2024-02-16T02:23:40;4.67;;;1.47;;
83447;SDS011;73376;45.472;-73.568;2024-02-16T02:26:09;6.47;;;1.70;;
83447;SDS011;73376;45.472;-73.568;2024-02-16T02:28:35;7.77;;;1.50;;
83447;SDS011;73376;45.472;-73.568;2024-02-16T02:31:03;5.40;;;1.50;;
83447;SDS011;73376;45.472;-73.568;2024-02-16T02:33:29;6.77;;;1.83;;
83447;SDS011;73376;45.472;-73.568;2024-02-16T02:35:55;6.93;;;1.67;;
83447;SDS011;73376;45.472;-73.568;2024-02-16T02:38:23;7.27;;;1.87;;
83447;SDS011;73376;45.472;-73.568;2024-02-16T02:40:51;6.00;;;1.67;;
83447;SDS011;73376;45.472;-73.568;2024-02-16T02:43:20;2.93;;;1.53;;
83447;SDS011;73376;45.472;-73.568;2024-02-16T02:45:50;5.83;;;2.10;;
83447;SDS011;73376;45.472;-73.568;2024-02-16T02:48:18;3.33;;;1.50;;
83447;SDS011;73376;45.472;-73.568;2024-02-16T02:50:44;5.57;;;2.60;;
83447;SDS011;73376;45.472;-73.568;2024-02-16T02:53:10;8.73;;;3.63;;
83447;SDS011;73376;45.472;-73.568;2024-02-16T02:55:36;6.20;;;2.13;;
83447;SDS011;73376;45.472;-73.568;2024-02-16T02:58:05;6.23;;;3.50;;
83447;SDS011;73376;45.472;-73.568;2024-02-16T03:00:31;8.90;;;3.80;;
83447;SDS011;73376;45.472;-73.568;2024-02-16T03:02:58;4.77;;;2.77;;
83447;SDS011;73376;45.472;-73.568;2024-02-16T03:05:23;4.63;;;2.23;;
83447;SDS011;73376;45.472;-73.568;2024-02-16T03:07:55;6.93;;;2.50;;
83447;SDS011;73376;45.472;-73.568;2024-02-16T03:10:23;9.02;;;2.58;;
83447;SDS011;73376;45.472;-73.568;2024-02-16T03:12:49;6.43;;;2.03;;
83447;SDS011;73376;45.472;-73.568;2024-02-16T03:15:16;8.40;;;2.63;;
83447;SDS011;73376;45.472;-73.568;2024-02-16T03:17:43;8.70;;;2.70;;
83447;SDS011;73376;45.472;-73.568;2024-02-16T03:20:09;21.00;;;4.77;;
83447;SDS011;73376;45.472;-73.568;2024-02-16T03:22:38;5.93;;;2.67;;
83447;SDS011;73376;45.472;-73.568;2024-02-16T03:25:04;8.83;;;3.50;;
83447;SDS011;73376;45.472;-73.568;2024-02-16T03:27:33;4.53;;;2.43;;
83447;SDS011;73376;45.472;-73.568;2024-02-16T03:30:02;9.63;;;2.23;;
83447;SDS011;73376;45.472;-73.568;2024-02-16T03:32:30;6.47;;;2.47;;
83447;SDS011;73376;45.472;-73.568;2024-02-16T03:34:57;5.87;;;2.30;;
83447;SDS011;73376;45.472;-73.568;2024-02-16T03:37:24;8.00;;;2.17;;
83447;SDS011;73376;45.472;-73.568;2024-02-16T03:39:50;3.80;;;1.90;;
83447;SDS011;73376;45.472;-73.568;2024-02-16T03:42:21;7.63;;;2.20;;
83447;SDS011;73376;45.472;-73.568;2024-02-16T03:44:47;10.20;;;2.47;;
83447;SDS011;73376;45.472;-73.568;2024-02-16T03:47:13;7.07;;;2.17;;
83447;SDS011;73376;45.472;-73.568;2024-02-16T03:49:42;6.37;;;2.03;;
83447;SDS011;73376;45.472;-73.568;2024-02-16T03:52:11;6.13;;;1.83;;
83447;SDS011;73376;45.472;-73.568;2024-02-16T03:54:39;6.73;;;2.00;;
83447;SDS011;73376;45.472;-73.568;2024-02-16T03:57:05;6.00;;;2.00;;
83447;SDS011;73376;45.472;-73.568;2024-02-16T03:59:34;6.13;;;2.83;;
83447;SDS011;73376;45.472;-73.568;2024-02-16T04:02:01;7.83;;;2.20;;
83447;SDS011;73376;45.472;-73.568;2024-02-16T04:04:27;4.50;;;2.27;;
83447;SDS011;73376;45.472;-73.568;2024-02-16T04:06:53;6.73;;;2.03;;
83447;SDS011;73376;45.472;-73.568;2024-02-16T04:09:19;6.20;;;2.30;;
83447;SDS011;73376;45.472;-73.568;2024-02-16T04:11:45;5.70;;;2.13;;
83447;SDS011;73376;45.472;-73.568;2024-02-16T04:14:12;5.67;;;2.60;;
83447;SDS011;73376;45.472;-73.568;2024-02-16T04:16:38;6.27;;;2.10;;
83447;SDS011;73376;45.472;-73.568;2024-02-16T04:19:04;10.07;;;2.50;;
83447;SDS011;73376;45.472;-73.568;2024-02-16T04:21:30;10.20;;;2.50;;
83447;SDS011;73376;45.472;-73.568;2024-02-16T04:23:56;5.83;;;2.13;;
83447;SDS011;73376;45.472;-73.568;2024-02-16T04:26:22;5.17;;;2.23;;
83447;SDS011;73376;45.472;-73.568;2024-02-16T04:28:48;6.73;;;2.00;;
83447;SDS011;73376;45.472;-73.568;2024-02-16T04:31:16;8.43;;;2.33;;
83447;SDS011;73376;45.472;-73.568;2024-02-16T04:33:45;4.63;;;2.10;;
83447;SDS011;73376;45.472;-73.568;2024-02-16T04:36:11;3.78;;;1.58;;
83447;SDS011;73376;45.472;-73.568;2024-02-16T04:38:37;6.80;;;2.10;;
83447;SDS011;73376;45.472;-73.568;2024-02-16T04:41:07;4.68;;;1.77;;
83447;SDS011;73376;45.472;-73.568;2024-02-16T04:43:35;6.80;;;2.25;;
83447;SDS011;73376;45.472;-73.568;2024-02-16T04:46:02;3.03;;;1.90;;
83447;SDS011;73376;45.472;-73.568;2024-02-16T04:48:31;8.02;;;2.38;;
83447;SDS011;73376;45.472;-73.568;2024-02-16T04:50:57;3.93;;;1.87;;
83447;SDS011;73376;45.472;-73.568;2024-02-16T04:53:25;4.80;;;1.80;;
83447;SDS011;73376;45.472;-73.568;2024-02-16T04:55:51;3.93;;;2.07;;
83447;SDS011;73376;45.472;-73.568;2024-02-16T04:58:17;5.30;;;2.27;;
83447;SDS011;73376;45.472;-73.568;2024-02-16T05:00:43;6.00;;;2.13;;
83447;SDS011;73376;45.472;-73.568;2024-02-16T05:03:11;3.40;;;1.73;;
83447;SDS011;73376;45.472;-73.568;2024-02-16T05:05:40;4.43;;;2.50;;
83447;SDS011;73376;45.472;-73.568;2024-02-16T05:08:11;6.03;;;2.17;;
83447;SDS011;73376;45.472;-73.568;2024-02-16T05:10:37;6.80;;;2.38;;
83447;SDS011;73376;45.472;-73.568;2024-02-16T05:13:07;7.85;;;2.78;;
83447;SDS011;73376;45.472;-73.568;2024-02-16T05:15:32;5.87;;;2.27;;
83447;SDS011;73376;45.472;-73.568;2024-02-16T05:17:58;4.73;;;2.63;;
83447;SDS011;73376;45.472;-73.568;2024-02-16T05:20:27;6.78;;;2.40;;
83447;SDS011;73376;45.472;-73.568;2024-02-16T05:22:53;3.90;;;2.53;;
83447;SDS011;73376;45.472;-73.568;2024-02-16T05:25:19;5.23;;;2.60;;
83447;SDS011;73376;45.472;-73.568;2024-02-16T05:27:45;5.83;;;2.47;;
83447;SDS011;73376;45.472;-73.568;2024-02-16T05:30:12;5.18;;;2.40;;
83447;SDS011;73376;45.472;-73.568;2024-02-16T05:32:40;10.02;;;2.80;;
83447;SDS011;73376;45.472;-73.568;2024-02-16T05:35:08;4.20;;;2.33;;
83447;SDS011;73376;45.472;-73.568;2024-02-16T05:37:37;5.83;;;2.37;;
83447;SDS011;73376;45.472;-73.568;2024-02-16T05:40:13;8.40;;;2.55;;
83447;SDS011;73376;45.472;-73.568;2024-02-16T05:42:54;4.30;;;2.13;;
83447;SDS011;73376;45.472;-73.568;2024-02-16T05:45:23;6.10;;;2.10;;
83447;SDS011;73376;45.472;-73.568;2024-02-16T05:47:52;10.20;;;2.53;;
83447;SDS011;73376;45.472;-73.568;2024-02-16T05:50:19;4.30;;;2.10;;
83447;SDS011;73376;45.472;-73.568;2024-02-16T05:52:47;8.53;;;2.17;;
83447;SDS011;73376;45.472;-73.568;2024-02-16T05:55:15;3.67;;;2.10;;
83447;SDS011;73376;45.472;-73.568;2024-02-16T05:57:43;5.03;;;2.13;;
83447;SDS011;73376;45.472;-73.568;2024-02-16T06:00:10;3.42;;;2.05;;
83447;SDS011;73376;45.472;-73.568;2024-02-16T06:02:38;6.30;;;2.47;;
83447;SDS011;73376;45.472;-73.568;2024-02-16T06:05:04;5.33;;;2.33;;
83447;SDS011;73376;45.472;-73.568;2024-02-16T06:07:30;9.03;;;2.20;;
83447;SDS011;73376;45.472;-73.568;2024-02-16T06:09:57;3.13;;;1.90;;
83447;SDS011;73376;45.472;-73.568;2024-02-16T06:12:23;5.53;;;2.50;;
83447;SDS011;73376;45.472;-73.568;2024-02-16T06:14:51;6.38;;;2.28;;
83447;SDS011;73376;45.472;-73.568;2024-02-16T06:17:23;4.80;;;1.95;;
83447;SDS011;73376;45.472;-73.568;2024-02-16T06:19:49;6.50;;;2.53;;
83447;SDS011;73376;45.472;-73.568;2024-02-16T06:22:16;6.47;;;2.40;;
83447;SDS011;73376;45.472;-73.568;2024-02-16T06:24:42;5.32;;;2.13;;
83447;SDS011;73376;45.472;-73.568;2024-02-16T06:27:08;4.97;;;2.13;;
83447;SDS011;73376;45.472;-73.568;2024-02-16T06:29:34;7.00;;;2.23;;
83447;SDS011;73376;45.472;-73.568;2024-02-16T06:32:00;7.28;;;2.28;;
83447;SDS011;73376;45.472;-73.568;2024-02-16T06:34:27;5.95;;;2.65;;
83447;SDS011;73376;45.472;-73.568;2024-02-16T06:36:53;6.60;;;2.78;;
83447;SDS011;73376;45.472;-73.568;2024-02-16T06:39:21;5.47;;;2.47;;
83447;SDS011;73376;45.472;-73.568;2024-02-16T06:41:47;6.47;;;2.45;;
83447;SDS011;73376;45.472;-73.568;2024-02-16T06:44:16;3.95;;;2.33;;
83447;SDS011;73376;45.472;-73.568;2024-02-16T06:46:42;3.53;;;2.30;;
83447;SDS011;73376;45.472;-73.568;2024-02-16T06:49:09;5.10;;;2.00;;
83447;SDS011;73376;45.472;-73.568;2024-02-16T06:51:36;4.85;;;2.30;;
83447;SDS011;73376;45.472;-73.568;2024-02-16T06:54:02;7.57;;;2.85;;
83447;SDS011;73376;45.472;-73.568;2024-02-16T06:56:32;3.92;;;2.15;;
83447;SDS011;73376;45.472;-73.568;2024-02-16T06:58:58;3.75;;;2.08;;
83447;SDS011;73376;45.472;-73.568;2024-02-16T07:01:26;3.85;;;2.13;;
83447;SDS011;73376;45.472;-73.568;2024-02-16T07:03:52;6.23;;;2.37;;
83447;SDS011;73376;45.472;-73.568;2024-02-16T07:06:19;5.68;;;2.20;;
83447;SDS011;73376;45.472;-73.568;2024-02-16T07:08:45;3.33;;;2.30;;
83447;SDS011;73376;45.472;-73.568;2024-02-16T07:11:11;4.72;;;1.90;;
83447;SDS011;73376;45.472;-73.568;2024-02-16T07:13:38;4.25;;;1.73;;
83447;SDS011;73376;45.472;-73.568;2024-02-16T07:16:05;4.30;;;1.85;;
83447;SDS011;73376;45.472;-73.568;2024-02-16T07:18:32;4.53;;;1.85;;
83447;SDS011;73376;45.472;-73.568;2024-02-16T07:21:02;3.28;;;1.90;;
83447;SDS011;73376;45.472;-73.568;2024-02-16T07:23:28;3.63;;;1.90;;
83447;SDS011;73376;45.472;-73.568;2024-02-16T07:25:55;4.20;;;1.70;;
83447;SDS011;73376;45.472;-73.568;2024-02-16T07:28:24;3.13;;;1.70;;
83447;SDS011;73376;45.472;-73.568;2024-02-16T07:30:53;5.75;;;1.70;;
83447;SDS011;73376;45.472;-73.568;2024-02-16T07:33:22;3.30;;;1.63;;
83447;SDS011;73376;45.472;-73.568;2024-02-16T07:35:49;4.97;;;1.73;;
83447;SDS011;73376;45.472;-73.568;2024-02-16T07:38:19;4.47;;;1.42;;
83447;SDS011;73376;45.472;-73.568;2024-02-16T07:40:47;4.45;;;1.42;;
83447;SDS011;73376;45.472;-73.568;2024-02-16T07:43:13;4.35;;;1.90;;
83447;SDS011;73376;45.472;-73.568;2024-02-16T07:45:41;5.40;;;1.83;;
83447;SDS011;73376;45.472;-73.568;2024-02-16T07:48:07;4.03;;;2.00;;
83447;SDS011;73376;45.472;-73.568;2024-02-16T07:50:33;4.70;;;2.10;;
83447;SDS011;73376;45.472;-73.568;2024-02-16T07:53:01;5.45;;;1.98;;
83447;SDS011;73376;45.472;-73.568;2024-02-16T07:55:27;5.60;;;2.20;;
83447;SDS011;73376;45.472;-73.568;2024-02-16T07:57:53;5.10;;;2.20;;
83447;SDS011;73376;45.472;-73.568;2024-02-16T08:00:19;4.63;;;1.85;;
83447;SDS011;73376;45.472;-73.568;2024-02-16T08:02:48;3.80;;;1.90;;
83447;SDS011;73376;45.472;-73.568;2024-02-16T08:05:14;5.72;;;2.28;;
83447;SDS011;73376;45.472;-73.568;2024-02-16T08:07:40;5.20;;;2.30;;
83447;SDS011;73376;45.472;-73.568;2024-02-16T08:10:08;4.25;;;2.10;;
83447;SDS011;73376;45.472;-73.568;2024-02-16T08:12:37;3.92;;;1.95;;
83447;SDS011;73376;45.472;-73.568;2024-02-16T08:15:04;4.57;;;2.30;;
83447;SDS011;73376;45.472;-73.568;2024-02-16T08:17:35;7.00;;;2.20;;
83447;SDS011;73376;45.472;-73.568;2024-02-16T08:20:02;4.53;;;2.05;;
83447;SDS011;73376;45.472;-73.568;2024-02-16T08:22:28;5.28;;;2.08;;
83447;SDS011;73376;45.472;-73.568;2024-02-16T08:24:57;6.13;;;2.30;;
83447;SDS011;73376;45.472;-73.568;2024-02-16T08:27:23;5.32;;;2.17;;
83447;SDS011;73376;45.472;-73.568;2024-02-16T08:29:52;4.13;;;2.30;;
83447;SDS011;73376;45.472;-73.568;2024-02-16T08:32:18;4.53;;;2.53;;
83447;SDS011;73376;45.472;-73.568;2024-02-16T08:34:45;4.53;;;2.20;;
83447;SDS011;73376;45.472;-73.568;2024-02-16T08:37:15;5.45;;;2.13;;
83447;SDS011;73376;45.472;-73.568;2024-02-16T08:39:45;4.35;;;2.13;;
83447;SDS011;73376;45.472;-73.568;2024-02-16T08:42:11;4.15;;;2.00;;
83447;SDS011;73376;45.472;-73.568;2024-02-16T08:44:39;4.25;;;1.90;;
83447;SDS011;73376;45.472;-73.568;2024-02-16T08:47:07;3.85;;;1.75;;
83447;SDS011;73376;45.472;-73.568;2024-02-16T08:49:36;5.57;;;2.13;;
83447;SDS011;73376;45.472;-73.568;2024-02-16T08:52:03;3.85;;;1.60;;
83447;SDS011;73376;45.472;-73.568;2024-02-16T08:54:31;3.45;;;1.70;;
83447;SDS011;73376;45.472;-73.568;2024-02-16T08:56:57;2.73;;;1.43;;
83447;SDS011;73376;45.472;-73.568;2024-02-16T08:59:23;6.25;;;1.65;;
83447;SDS011;73376;45.472;-73.568;2024-02-16T09:01:51;5.72;;;1.60;;
83447;SDS011;73376;45.472;-73.568;2024-02-16T09:04:17;5.70;;;1.93;;
83447;SDS011;73376;45.472;-73.568;2024-02-16T09:06:43;5.63;;;1.50;;
83447;SDS011;73376;45.472;-73.568;2024-02-16T09:09:09;2.30;;;1.17;;
83447;SDS011;73376;45.472;-73.568;2024-02-16T09:11:36;2.60;;;1.10;;
83447;SDS011;73376;45.472;-73.568;2024-02-16T09:14:02;3.75;;;1.50;;
83447;SDS011;73376;45.472;-73.568;2024-02-16T09:16:28;3.65;;;1.40;;
83447;SDS011;73376;45.472;-73.568;2024-02-16T09:18:55;2.38;;;1.20;;
83447;SDS011;73376;45.472;-73.568;2024-02-16T09:21:24;4.50;;;1.30;;
83447;SDS011;73376;45.472;-73.568;2024-02-16T09:23:56;2.00;;;1.13;;
83447;SDS011;73376;45.472;-73.568;2024-02-16T09:26:27;2.25;;;1.17;;
83447;SDS011;73376;45.472;-73.568;2024-02-16T09:28:56;1.90;;;0.90;;
83447;SDS011;73376;45.472;-73.568;2024-02-16T09:31:23;1.75;;;0.93;;
83447;SDS011;73376;45.472;-73.568;2024-02-16T09:33:50;5.03;;;1.52;;
83447;SDS011;73376;45.472;-73.568;2024-02-16T09:36:17;1.90;;;0.93;;
83447;SDS011;73376;45.472;-73.568;2024-02-16T09:38:46;3.75;;;0.88;;
83447;SDS011;73376;45.472;-73.568;2024-02-16T09:41:14;2.42;;;0.85;;
83447;SDS011;73376;45.472;-73.568;2024-02-16T09:43:45;1.73;;;0.70;;
83447;SDS011;73376;45.472;-73.568;2024-02-16T09:46:11;4.65;;;0.93;;
83447;SDS011;73376;45.472;-73.568;2024-02-16T09:48:40;2.25;;;0.90;;
83447;SDS011;73376;45.472;-73.568;2024-02-16T09:51:09;3.38;;;0.80;;
83447;SDS011;73376;45.472;-73.568;2024-02-16T09:53:35;3.45;;;0.80;;
83447;SDS011;73376;45.472;-73.568;2024-02-16T09:56:01;1.83;;;1.00;;
83447;SDS011;73376;45.472;-73.568;2024-02-16T09:58:30;1.63;;;0.80;;
83447;SDS011;73376;45.472;-73.568;2024-02-16T10:00:59;7.18;;;1.67;;
83447;SDS011;73376;45.472;-73.568;2024-02-16T10:03:29;2.92;;;0.93;;
83447;SDS011;73376;45.472;-73.568;2024-02-16T10:06:07;3.17;;;1.00;;
83447;SDS011;73376;45.472;-73.568;2024-02-16T10:08:35;4.53;;;0.70;;
83447;SDS011;73376;45.472;-73.568;2024-02-16T10:11:15;1.35;;;0.73;;
83447;SDS011;73376;45.472;-73.568;2024-02-16T10:14:00;1.55;;;0.90;;
83447;SDS011;73376;45.472;-73.568;2024-02-16T10:16:33;5.90;;;0.90;;
83447;SDS011;73376;45.472;-73.568;2024-02-16T10:19:06;2.38;;;1.00;;
83447;SDS011;73376;45.472;-73.568;2024-02-16T10:21:35;2.78;;;0.80;;
83447;SDS011;73376;45.472;-73.568;2024-02-16T10:24:05;0.70;;;0.45;;
83447;SDS011;73376;45.472;-73.568;2024-02-16T10:26:33;4.25;;;1.55;;
83447;SDS011;73376;45.472;-73.568;2024-02-16T10:29:04;1.55;;;0.60;;
83447;SDS011;73376;45.472;-73.568;2024-02-16T10:31:34;1.90;;;0.65;;
83447;SDS011;73376;45.472;-73.568;2024-02-16T10:34:00;2.30;;;0.68;;
83447;SDS011;73376;45.472;-73.568;2024-02-16T10:36:33;4.03;;;1.00;;
83447;SDS011;73376;45.472;-73.568;2024-02-16T10:39:01;1.30;;;0.68;;
83447;SDS011;73376;45.472;-73.568;2024-02-16T10:41:34;2.08;;;0.50;;
83447;SDS011;73376;45.472;-73.568;2024-02-16T10:44:04;0.45;;;0.40;;
83447;SDS011;73376;45.472;-73.568;2024-02-16T10:46:31;1.35;;;0.77;;
83447;SDS011;73376;45.472;-73.568;2024-02-16T10:48:59;1.42;;;0.60;;
83447;SDS011;73376;45.472;-73.568;2024-02-16T10:51:28;1.35;;;0.70;;
83447;SDS011;73376;45.472;-73.568;2024-02-16T10:54:06;1.88;;;0.77;;
83447;SDS011;73376;45.472;-73.568;2024-02-16T10:56:37;2.47;;;0.90;;
83447;SDS011;73376;45.472;-73.568;2024-02-16T10:59:08;2.95;;;0.70;;
83447;SDS011;73376;45.472;-73.568;2024-02-16T11:01:39;2.25;;;0.75;;
83447;SDS011;73376;45.472;-73.568;2024-02-16T11:04:07;5.07;;;0.80;;
83447;SDS011;73376;45.472;-73.568;2024-02-16T11:09:27;1.42;;;0.63;;
83447;SDS011;73376;45.472;-73.568;2024-02-16T11:11:54;1.40;;;0.70;;
83447;SDS011;73376;45.472;-73.568;2024-02-16T11:14:36;4.57;;;0.80;;
83447;SDS011;73376;45.472;-73.568;2024-02-16T11:19:37;1.95;;;0.60;;
83447;SDS011;73376;45.472;-73.568;2024-02-16T11:22:26;1.38;;;0.45;;
83447;SDS011;73376;45.472;-73.568;2024-02-16T11:24:53;1.70;;;0.60;;
83447;SDS011;73376;45.472;-73.568;2024-02-16T11:27:20;1.63;;;0.90;;
83447;SDS011;73376;45.472;-73.568;2024-02-16T11:29:47;1.58;;;0.60;;
83447;SDS011;73376;45.472;-73.568;2024-02-16T11:32:14;3.40;;;0.75;;
83447;SDS011;73376;45.472;-73.568;2024-02-16T11:34:43;1.25;;;0.60;;
83447;SDS011;73376;45.472;-73.568;2024-02-16T11:37:09;4.28;;;0.73;;
83447;SDS011;73376;45.472;-73.568;2024-02-16T11:39:42;0.82;;;0.60;;
83447;SDS011;73376;45.472;-73.568;2024-02-16T11:42:10;1.65;;;0.80;;
83447;SDS011;73376;45.472;-73.568;2024-02-16T11:44:39;1.27;;;0.65;;
83447;SDS011;73376;45.472;-73.568;2024-02-16T11:47:18;2.72;;;0.80;;
83447;SDS011;73376;45.472;-73.568;2024-02-16T11:50:11;1.65;;;0.65;;
83447;SDS011;73376;45.472;-73.568;2024-02-16T11:52:37;1.92;;;0.70;;
83447;SDS011;73376;45.472;-73.568;2024-02-16T11:55:07;2.78;;;0.75;;
83447;SDS011;73376;45.472;-73.568;2024-02-16T11:57:38;1.70;;;0.60;;
83447;SDS011;73376;45.472;-73.568;2024-02-16T12:00:05;4.57;;;1.05;;
83447;SDS011;73376;45.472;-73.568;2024-02-16T12:02:40;1.52;;;0.93;;
83447;SDS011;73376;45.472;-73.568;2024-02-16T12:05:06;4.53;;;0.82;;
83447;SDS011;73376;45.472;-73.568;2024-02-16T12:07:33;1.77;;;0.85;;
83447;SDS011;73376;45.472;-73.568;2024-02-16T12:10:02;1.92;;;0.80;;
83447;SDS011;73376;45.472;-73.568;2024-02-16T12:12:32;2.30;;;0.80;;
83447;SDS011;73376;45.472;-73.568;2024-02-16T12:14:58;1.17;;;0.60;;
83447;SDS011;73376;45.472;-73.568;2024-02-16T12:19:58;1.90;;;0.90;;
83447;SDS011;73376;45.472;-73.568;2024-02-16T12:24:53;2.10;;;0.80;;
83447;SDS011;73376;45.472;-73.568;2024-02-16T12:27:19;2.37;;;0.80;;
83447;SDS011;73376;45.472;-73.568;2024-02-16T12:29:45;2.85;;;0.93;;
83447;SDS011;73376;45.472;-73.568;2024-02-16T12:32:14;3.70;;;1.17;;
83447;SDS011;73376;45.472;-73.568;2024-02-16T12:34:43;2.55;;;0.95;;
83447;SDS011;73376;45.472;-73.568;2024-02-16T12:37:09;3.65;;;1.20;;
83447;SDS011;73376;45.472;-73.568;2024-02-16T12:39:36;4.38;;;1.00;;
83447;SDS011;73376;45.472;-73.568;2024-02-16T12:42:05;2.83;;;1.15;;
83447;SDS011;73376;45.472;-73.568;2024-02-16T12:44:32;10.98;;;1.63;;
83447;SDS011;73376;45.472;-73.568;2024-02-16T12:46:58;1.88;;;1.25;;
83447;SDS011;73376;45.472;-73.568;2024-02-16T12:49:24;2.40;;;1.10;;
83447;SDS011;73376;45.472;-73.568;2024-02-16T12:51:51;2.85;;;1.15;;
83447;SDS011;73376;45.472;-73.568;2024-02-16T12:54:17;4.60;;;1.00;;
83447;SDS011;73376;45.472;-73.568;2024-02-16T12:56:47;2.45;;;1.20;;
83447;SDS011;73376;45.472;-73.568;2024-02-16T12:59:15;3.05;;;0.98;;
83447;SDS011;73376;45.472;-73.568;2024-02-16T13:01:41;6.10;;;1.38;;
83447;SDS011;73376;45.472;-73.568;2024-02-16T13:04:13;5.75;;;1.58;;
83447;SDS011;73376;45.472;-73.568;2024-02-16T13:06:46;2.17;;;1.00;;
83447;SDS011;73376;45.472;-73.568;2024-02-16T13:09:13;4.83;;;1.10;;
83447;SDS011;73376;45.472;-73.568;2024-02-16T13:11:40;1.98;;;1.00;;
83447;SDS011;73376;45.472;-73.568;2024-02-16T13:14:06;4.13;;;1.10;;
83447;SDS011;73376;45.472;-73.568;2024-02-16T13:16:32;3.53;;;0.97;;
83447;SDS011;73376;45.472;-73.568;2024-02-16T13:18:58;1.43;;;0.90;;
83447;SDS011;73376;45.472;-73.568;2024-02-16T13:21:24;3.63;;;1.20;;
83447;SDS011;73376;45.472;-73.568;2024-02-16T13:23:50;5.83;;;1.20;;
83447;SDS011;73376;45.472;-73.568;2024-02-16T13:26:16;3.90;;;1.23;;
83447;SDS011;73376;45.472;-73.568;2024-02-16T13:28:42;3.30;;;1.13;;
83447;SDS011;73376;45.472;-73.568;2024-02-16T13:31:08;5.40;;;1.47;;
83447;SDS011;73376;45.472;-73.568;2024-02-16T13:33:36;4.73;;;1.30;;
83447;SDS011;73376;45.472;-73.568;2024-02-16T13:36:02;4.33;;;1.10;;
83447;SDS011;73376;45.472;-73.568;2024-02-16T13:38:30;1.83;;;1.10;;
83447;SDS011;73376;45.472;-73.568;2024-02-16T13:40:56;5.60;;;1.40;;
83447;SDS011;73376;45.472;-73.568;2024-02-16T13:43:22;5.53;;;1.50;;
83447;SDS011;73376;45.472;-73.568;2024-02-16T13:45:52;4.20;;;1.13;;
83447;SDS011;73376;45.472;-73.568;2024-02-16T13:48:19;2.87;;;1.30;;
83447;SDS011;73376;45.472;-73.568;2024-02-16T13:50:48;5.57;;;1.33;;
83447;SDS011;73376;45.472;-73.568;2024-02-16T13:53:18;4.23;;;1.20;;
83447;SDS011;73376;45.472;-73.568;2024-02-16T13:55:44;2.67;;;1.17;;
83447;SDS011;73376;45.472;-73.568;2024-02-16T13:58:13;8.23;;;1.87;;
83447;SDS011;73376;45.472;-73.568;2024-02-16T14:00:40;4.53;;;1.10;;
83447;SDS011;73376;45.472;-73.568;2024-02-16T14:03:06;5.63;;;1.33;;
83447;SDS011;73376;45.472;-73.568;2024-02-16T14:05:37;4.82;;;1.40;;
83447;SDS011;73376;45.472;-73.568;2024-02-16T14:08:04;8.97;;;1.40;;
83447;SDS011;73376;45.472;-73.568;2024-02-16T14:10:31;3.23;;;1.33;;
83447;SDS011;73376;45.472;-73.568;2024-02-16T14:13:00;6.47;;;1.33;;
83447;SDS011;73376;45.472;-73.568;2024-02-16T14:15:29;4.37;;;1.33;;
83447;SDS011;73376;45.472;-73.568;2024-02-16T14:17:56;4.00;;;1.03;;
83447;SDS011;73376;45.472;-73.568;2024-02-16T14:20:23;4.93;;;1.37;;
83447;SDS011;73376;45.472;-73.568;2024-02-16T14:22:50;4.13;;;1.30;;
83447;SDS011;73376;45.472;-73.568;2024-02-16T14:25:22;2.50;;;1.07;;
83447;SDS011;73376;45.472;-73.568;2024-02-16T14:27:52;6.63;;;1.13;;
83447;SDS011;73376;45.472;-73.568;2024-02-16T14:30:18;4.60;;;1.20;;
83447;SDS011;73376;45.472;-73.568;2024-02-16T14:32:45;3.73;;;1.30;;
83447;SDS011;73376;45.472;-73.568;2024-02-16T14:35:13;2.27;;;1.10;;